sensor_id;sensor_type;location;lat;lon;timestamp;P1;durP1;ratioP1;P2;durP2;ratioP2
42590;SDS011;28218;53.342;-6.216;2023-03-05T00:01:30;21.77;;;12.80;;
42590;SDS011;28218;53.342;-6.216;2023-03-05T00:03:59;21.10;;;13.05;;
42590;SDS011;28218;53.342;-6.216;2023-03-05T00:06:29;23.58;;;13.63;;
42590;SDS011;28218;53.342;-6.216;2023-03-05T00:09:00;19.38;;;12.82;;
42590;SDS011;28218;53.342;-6.216;2023-03-05T00:11:29;19.63;;;12.45;;
42590;SDS011;28218;53.342;-6.216;2023-03-05T00:13:59;19.30;;;12.70;;
42590;SDS011;28218;53.342;-6.216;2023-03-05T00:16:29;18.67;;;11.45;;
42590;SDS011;28218;53.342;-6.216;2023-03-05T00:18:58;19.13;;;11.88;;
42590;SDS011;28218;53.342;-6.216;2023-03-05T00:21:28;17.40;;;11.23;;
42590;SDS011;28218;53.342;-6.216;2023-03-05T00:23:58;22.27;;;11.60;;
42590;SDS011;28218;53.342;-6.216;2023-03-05T00:26:28;17.85;;;11.52;;
42590;SDS011;28218;53.342;-6.216;2023-03-05T00:29:00;18.17;;;12.35;;
42590;SDS011;28218;53.342;-6.216;2023-03-05T00:31:29;16.67;;;11.27;;
42590;SDS011;28218;53.342;-6.216;2023-03-05T00:34:00;21.90;;;11.60;;
42590;SDS011;28218;53.342;-6.216;2023-03-05T00:36:29;15.48;;;11.63;;
42590;SDS011;28218;53.342;-6.216;2023-03-05T00:38:59;17.42;;;11.80;;
42590;SDS011;28218;53.342;-6.216;2023-03-05T00:41:27;17.20;;;11.13;;
42590;SDS011;28218;53.342;-6.216;2023-03-05T00:43:56;17.45;;;11.57;;
42590;SDS011;28218;53.342;-6.216;2023-03-05T00:46:24;17.88;;;10.32;;
42590;SDS011;28218;53.342;-6.216;2023-03-05T00:48:53;17.73;;;10.45;;
42590;SDS011;28218;53.342;-6.216;2023-03-05T00:51:21;16.85;;;11.00;;
42590;SDS011;28218;53.342;-6.216;2023-03-05T00:53:50;17.00;;;10.32;;
42590;SDS011;28218;53.342;-6.216;2023-03-05T00:56:19;20.17;;;10.95;;
42590;SDS011;28218;53.342;-6.216;2023-03-05T00:58:48;16.75;;;10.35;;
42590;SDS011;28218;53.342;-6.216;2023-03-05T01:01:16;16.23;;;10.85;;
42590;SDS011;28218;53.342;-6.216;2023-03-05T01:03:44;18.08;;;10.65;;
42590;SDS011;28218;53.342;-6.216;2023-03-05T01:06:13;15.48;;;10.20;;
42590;SDS011;28218;53.342;-6.216;2023-03-05T01:08:42;14.48;;;10.68;;
42590;SDS011;28218;53.342;-6.216;2023-03-05T01:11:11;18.92;;;10.93;;
42590;SDS011;28218;53.342;-6.216;2023-03-05T01:13:41;18.33;;;10.20;;
42590;SDS011;28218;53.342;-6.216;2023-03-05T01:16:09;17.85;;;10.85;;
42590;SDS011;28218;53.342;-6.216;2023-03-05T01:18:38;19.75;;;11.30;;
42590;SDS011;28218;53.342;-6.216;2023-03-05T01:21:07;19.00;;;10.73;;
42590;SDS011;28218;53.342;-6.216;2023-03-05T01:23:35;18.48;;;11.13;;
42590;SDS011;28218;53.342;-6.216;2023-03-05T01:26:03;16.30;;;9.93;;
42590;SDS011;28218;53.342;-6.216;2023-03-05T01:28:34;15.95;;;10.20;;
42590;SDS011;28218;53.342;-6.216;2023-03-05T01:31:07;17.98;;;11.73;;
42590;SDS011;28218;53.342;-6.216;2023-03-05T01:33:37;18.17;;;9.93;;
42590;SDS011;28218;53.342;-6.216;2023-03-05T01:36:06;17.65;;;9.82;;
42590;SDS011;28218;53.342;-6.216;2023-03-05T01:38:38;16.67;;;10.27;;
42590;SDS011;28218;53.342;-6.216;2023-03-05T01:41:06;18.15;;;10.43;;
42590;SDS011;28218;53.342;-6.216;2023-03-05T01:43:34;13.68;;;9.70;;
42590;SDS011;28218;53.342;-6.216;2023-03-05T01:46:24;13.40;;;9.82;;
42590;SDS011;28218;53.342;-6.216;2023-03-05T01:51:53;17.60;;;10.23;;
42590;SDS011;28218;53.342;-6.216;2023-03-05T01:54:30;15.10;;;9.77;;
42590;SDS011;28218;53.342;-6.216;2023-03-05T01:57:02;14.35;;;10.90;;
42590;SDS011;28218;53.342;-6.216;2023-03-05T01:59:35;16.25;;;10.55;;
42590;SDS011;28218;53.342;-6.216;2023-03-05T02:02:05;15.75;;;9.43;;
42590;SDS011;28218;53.342;-6.216;2023-03-05T02:04:35;14.77;;;9.95;;
42590;SDS011;28218;53.342;-6.216;2023-03-05T02:07:09;14.70;;;9.52;;
42590;SDS011;28218;53.342;-6.216;2023-03-05T02:09:38;14.52;;;9.93;;
42590;SDS011;28218;53.342;-6.216;2023-03-05T02:12:08;14.98;;;9.93;;
42590;SDS011;28218;53.342;-6.216;2023-03-05T02:14:38;13.00;;;9.23;;
42590;SDS011;28218;53.342;-6.216;2023-03-05T02:17:10;21.35;;;10.70;;
42590;SDS011;28218;53.342;-6.216;2023-03-05T02:19:45;11.85;;;8.85;;
42590;SDS011;28218;53.342;-6.216;2023-03-05T02:22:17;16.58;;;9.93;;
42590;SDS011;28218;53.342;-6.216;2023-03-05T02:27:14;15.70;;;9.23;;
42590;SDS011;28218;53.342;-6.216;2023-03-05T02:29:44;16.00;;;9.48;;
42590;SDS011;28218;53.342;-6.216;2023-03-05T02:32:13;16.13;;;9.88;;
42590;SDS011;28218;53.342;-6.216;2023-03-05T02:34:41;17.58;;;9.75;;
42590;SDS011;28218;53.342;-6.216;2023-03-05T02:37:09;14.80;;;8.45;;
42590;SDS011;28218;53.342;-6.216;2023-03-05T02:39:39;14.05;;;9.75;;
42590;SDS011;28218;53.342;-6.216;2023-03-05T02:42:07;15.32;;;9.07;;
42590;SDS011;28218;53.342;-6.216;2023-03-05T02:44:35;18.75;;;9.57;;
42590;SDS011;28218;53.342;-6.216;2023-03-05T02:47:04;14.65;;;10.38;;
42590;SDS011;28218;53.342;-6.216;2023-03-05T02:49:32;22.90;;;11.10;;
42590;SDS011;28218;53.342;-6.216;2023-03-05T02:52:00;18.15;;;9.27;;
42590;SDS011;28218;53.342;-6.216;2023-03-05T02:54:28;13.00;;;9.68;;
42590;SDS011;28218;53.342;-6.216;2023-03-05T02:56:58;15.48;;;9.45;;
42590;SDS011;28218;53.342;-6.216;2023-03-05T02:59:26;15.65;;;9.82;;
42590;SDS011;28218;53.342;-6.216;2023-03-05T03:01:54;12.70;;;9.27;;
42590;SDS011;28218;53.342;-6.216;2023-03-05T03:04:22;17.35;;;9.48;;
42590;SDS011;28218;53.342;-6.216;2023-03-05T03:06:51;15.35;;;9.93;;
42590;SDS011;28218;53.342;-6.216;2023-03-05T03:09:19;15.23;;;10.10;;
42590;SDS011;28218;53.342;-6.216;2023-03-05T03:11:47;14.63;;;10.02;;
42590;SDS011;28218;53.342;-6.216;2023-03-05T03:14:17;12.38;;;9.30;;
42590;SDS011;28218;53.342;-6.216;2023-03-05T03:16:45;12.00;;;8.93;;
42590;SDS011;28218;53.342;-6.216;2023-03-05T03:19:14;12.40;;;9.73;;
42590;SDS011;28218;53.342;-6.216;2023-03-05T03:21:42;17.25;;;10.02;;
42590;SDS011;28218;53.342;-6.216;2023-03-05T03:24:10;17.23;;;10.75;;
42590;SDS011;28218;53.342;-6.216;2023-03-05T03:26:39;17.25;;;9.77;;
42590;SDS011;28218;53.342;-6.216;2023-03-05T03:29:07;13.57;;;9.48;;
42590;SDS011;28218;53.342;-6.216;2023-03-05T03:31:36;12.93;;;8.48;;
42590;SDS011;28218;53.342;-6.216;2023-03-05T03:36:34;15.30;;;9.07;;
42590;SDS011;28218;53.342;-6.216;2023-03-05T03:39:02;13.38;;;9.65;;
42590;SDS011;28218;53.342;-6.216;2023-03-05T03:41:32;19.23;;;9.60;;
42590;SDS011;28218;53.342;-6.216;2023-03-05T03:44:00;13.93;;;9.73;;
42590;SDS011;28218;53.342;-6.216;2023-03-05T03:46:30;17.13;;;10.30;;
42590;SDS011;28218;53.342;-6.216;2023-03-05T03:49:01;15.95;;;9.77;;
42590;SDS011;28218;53.342;-6.216;2023-03-05T03:51:29;18.85;;;10.75;;
42590;SDS011;28218;53.342;-6.216;2023-03-05T03:53:57;18.13;;;9.93;;
42590;SDS011;28218;53.342;-6.216;2023-03-05T03:56:25;16.38;;;9.80;;
42590;SDS011;28218;53.342;-6.216;2023-03-05T03:58:53;15.80;;;10.00;;
42590;SDS011;28218;53.342;-6.216;2023-03-05T04:01:22;12.15;;;9.57;;
42590;SDS011;28218;53.342;-6.216;2023-03-05T04:03:50;16.92;;;10.13;;
42590;SDS011;28218;53.342;-6.216;2023-03-05T04:06:19;16.48;;;10.25;;
42590;SDS011;28218;53.342;-6.216;2023-03-05T04:08:48;16.85;;;10.23;;
42590;SDS011;28218;53.342;-6.216;2023-03-05T04:11:16;15.02;;;9.63;;
42590;SDS011;28218;53.342;-6.216;2023-03-05T04:13:45;14.70;;;9.95;;
42590;SDS011;28218;53.342;-6.216;2023-03-05T04:16:14;15.70;;;10.80;;
42590;SDS011;28218;53.342;-6.216;2023-03-05T04:18:44;15.52;;;9.52;;
42590;SDS011;28218;53.342;-6.216;2023-03-05T04:21:13;18.85;;;10.48;;
42590;SDS011;28218;53.342;-6.216;2023-03-05T04:23:42;14.95;;;10.25;;
42590;SDS011;28218;53.342;-6.216;2023-03-05T04:26:10;18.52;;;10.18;;
42590;SDS011;28218;53.342;-6.216;2023-03-05T04:28:38;19.40;;;10.57;;
42590;SDS011;28218;53.342;-6.216;2023-03-05T04:31:07;17.58;;;9.88;;
42590;SDS011;28218;53.342;-6.216;2023-03-05T04:33:35;14.50;;;9.85;;
42590;SDS011;28218;53.342;-6.216;2023-03-05T04:36:03;16.58;;;9.90;;
42590;SDS011;28218;53.342;-6.216;2023-03-05T04:38:32;18.77;;;10.05;;
42590;SDS011;28218;53.342;-6.216;2023-03-05T04:41:01;13.93;;;9.63;;
42590;SDS011;28218;53.342;-6.216;2023-03-05T04:43:30;13.80;;;9.50;;
42590;SDS011;28218;53.342;-6.216;2023-03-05T04:45:58;18.40;;;10.35;;
42590;SDS011;28218;53.342;-6.216;2023-03-05T04:48:26;17.95;;;9.85;;
42590;SDS011;28218;53.342;-6.216;2023-03-05T04:50:54;18.52;;;10.45;;
42590;SDS011;28218;53.342;-6.216;2023-03-05T04:53:24;17.55;;;10.05;;
42590;SDS011;28218;53.342;-6.216;2023-03-05T04:55:52;15.50;;;10.57;;
42590;SDS011;28218;53.342;-6.216;2023-03-05T04:58:22;15.98;;;9.80;;
42590;SDS011;28218;53.342;-6.216;2023-03-05T05:00:50;15.02;;;10.13;;
42590;SDS011;28218;53.342;-6.216;2023-03-05T05:03:19;17.65;;;10.32;;
42590;SDS011;28218;53.342;-6.216;2023-03-05T05:05:52;12.43;;;9.07;;
42590;SDS011;28218;53.342;-6.216;2023-03-05T05:08:21;16.75;;;10.57;;
42590;SDS011;28218;53.342;-6.216;2023-03-05T05:10:56;14.45;;;9.77;;
42590;SDS011;28218;53.342;-6.216;2023-03-05T05:13:26;13.45;;;9.80;;
42590;SDS011;28218;53.342;-6.216;2023-03-05T05:15:55;15.63;;;10.05;;
42590;SDS011;28218;53.342;-6.216;2023-03-05T05:18:25;14.20;;;9.52;;
42590;SDS011;28218;53.342;-6.216;2023-03-05T05:20:53;13.68;;;9.88;;
42590;SDS011;28218;53.342;-6.216;2023-03-05T05:23:22;15.38;;;9.82;;
42590;SDS011;28218;53.342;-6.216;2023-03-05T05:25:56;14.13;;;9.57;;
42590;SDS011;28218;53.342;-6.216;2023-03-05T05:28:27;14.57;;;9.70;;
42590;SDS011;28218;53.342;-6.216;2023-03-05T05:30:55;16.70;;;9.55;;
42590;SDS011;28218;53.342;-6.216;2023-03-05T05:33:24;14.50;;;10.00;;
42590;SDS011;28218;53.342;-6.216;2023-03-05T05:35:53;14.77;;;9.85;;
42590;SDS011;28218;53.342;-6.216;2023-03-05T05:38:21;16.55;;;9.95;;
42590;SDS011;28218;53.342;-6.216;2023-03-05T05:40:49;18.33;;;10.40;;
42590;SDS011;28218;53.342;-6.216;2023-03-05T05:43:17;14.93;;;9.85;;
42590;SDS011;28218;53.342;-6.216;2023-03-05T05:45:47;13.15;;;9.35;;
42590;SDS011;28218;53.342;-6.216;2023-03-05T05:48:15;17.15;;;10.80;;
42590;SDS011;28218;53.342;-6.216;2023-03-05T05:50:43;16.80;;;10.68;;
42590;SDS011;28218;53.342;-6.216;2023-03-05T05:53:11;13.93;;;10.23;;
42590;SDS011;28218;53.342;-6.216;2023-03-05T05:55:40;16.70;;;10.38;;
42590;SDS011;28218;53.342;-6.216;2023-03-05T05:58:08;17.48;;;10.15;;
42590;SDS011;28218;53.342;-6.216;2023-03-05T06:00:36;16.35;;;9.45;;
42590;SDS011;28218;53.342;-6.216;2023-03-05T06:03:05;19.27;;;9.98;;
42590;SDS011;28218;53.342;-6.216;2023-03-05T06:05:34;14.88;;;9.40;;
42590;SDS011;28218;53.342;-6.216;2023-03-05T06:08:02;33.72;;;11.35;;
42590;SDS011;28218;53.342;-6.216;2023-03-05T06:10:31;18.60;;;9.90;;
42590;SDS011;28218;53.342;-6.216;2023-03-05T06:12:59;15.20;;;9.88;;
42590;SDS011;28218;53.342;-6.216;2023-03-05T06:15:27;17.83;;;11.18;;
42590;SDS011;28218;53.342;-6.216;2023-03-05T06:17:57;19.50;;;10.20;;
42590;SDS011;28218;53.342;-6.216;2023-03-05T06:20:27;15.30;;;9.98;;
42590;SDS011;28218;53.342;-6.216;2023-03-05T06:22:55;16.58;;;9.93;;
42590;SDS011;28218;53.342;-6.216;2023-03-05T06:25:23;16.23;;;10.15;;
42590;SDS011;28218;53.342;-6.216;2023-03-05T06:27:51;15.07;;;9.82;;
42590;SDS011;28218;53.342;-6.216;2023-03-05T06:30:19;14.85;;;10.10;;
42590;SDS011;28218;53.342;-6.216;2023-03-05T06:32:48;14.70;;;9.70;;
42590;SDS011;28218;53.342;-6.216;2023-03-05T06:35:16;17.90;;;10.57;;
42590;SDS011;28218;53.342;-6.216;2023-03-05T06:37:45;16.17;;;9.90;;
42590;SDS011;28218;53.342;-6.216;2023-03-05T06:40:14;14.57;;;10.18;;
42590;SDS011;28218;53.342;-6.216;2023-03-05T06:42:42;15.95;;;10.02;;
42590;SDS011;28218;53.342;-6.216;2023-03-05T06:45:10;15.82;;;10.57;;
42590;SDS011;28218;53.342;-6.216;2023-03-05T06:47:39;13.75;;;9.45;;
42590;SDS011;28218;53.342;-6.216;2023-03-05T06:50:07;18.08;;;9.88;;
42590;SDS011;28218;53.342;-6.216;2023-03-05T06:52:37;15.10;;;9.80;;
42590;SDS011;28218;53.342;-6.216;2023-03-05T06:55:08;14.30;;;9.65;;
42590;SDS011;28218;53.342;-6.216;2023-03-05T06:57:36;15.27;;;10.32;;
42590;SDS011;28218;53.342;-6.216;2023-03-05T07:00:05;16.70;;;9.68;;
42590;SDS011;28218;53.342;-6.216;2023-03-05T07:02:35;13.32;;;9.65;;
42590;SDS011;28218;53.342;-6.216;2023-03-05T07:05:04;15.48;;;10.25;;
42590;SDS011;28218;53.342;-6.216;2023-03-05T07:07:33;15.77;;;10.15;;
42590;SDS011;28218;53.342;-6.216;2023-03-05T07:10:02;18.58;;;10.23;;
42590;SDS011;28218;53.342;-6.216;2023-03-05T07:12:34;18.05;;;10.48;;
42590;SDS011;28218;53.342;-6.216;2023-03-05T07:15:04;14.23;;;9.95;;
42590;SDS011;28218;53.342;-6.216;2023-03-05T07:17:33;14.05;;;9.20;;
42590;SDS011;28218;53.342;-6.216;2023-03-05T07:20:01;15.32;;;10.02;;
42590;SDS011;28218;53.342;-6.216;2023-03-05T07:22:30;15.93;;;9.05;;
42590;SDS011;28218;53.342;-6.216;2023-03-05T07:24:59;13.52;;;8.90;;
42590;SDS011;28218;53.342;-6.216;2023-03-05T07:27:27;16.45;;;9.75;;
42590;SDS011;28218;53.342;-6.216;2023-03-05T07:29:56;13.23;;;9.40;;
42590;SDS011;28218;53.342;-6.216;2023-03-05T07:32:25;16.67;;;9.32;;
42590;SDS011;28218;53.342;-6.216;2023-03-05T07:34:53;13.98;;;9.07;;
42590;SDS011;28218;53.342;-6.216;2023-03-05T07:37:21;12.55;;;8.77;;
42590;SDS011;28218;53.342;-6.216;2023-03-05T07:39:49;17.15;;;9.63;;
42590;SDS011;28218;53.342;-6.216;2023-03-05T07:42:17;15.02;;;9.00;;
42590;SDS011;28218;53.342;-6.216;2023-03-05T07:44:46;14.95;;;9.32;;
42590;SDS011;28218;53.342;-6.216;2023-03-05T07:47:16;13.07;;;9.18;;
42590;SDS011;28218;53.342;-6.216;2023-03-05T07:49:45;15.13;;;9.05;;
42590;SDS011;28218;53.342;-6.216;2023-03-05T07:52:13;17.40;;;9.88;;
42590;SDS011;28218;53.342;-6.216;2023-03-05T07:54:41;16.20;;;9.07;;
42590;SDS011;28218;53.342;-6.216;2023-03-05T07:57:09;17.38;;;9.27;;
42590;SDS011;28218;53.342;-6.216;2023-03-05T07:59:39;16.52;;;8.77;;
42590;SDS011;28218;53.342;-6.216;2023-03-05T08:02:09;18.33;;;9.05;;
42590;SDS011;28218;53.342;-6.216;2023-03-05T08:04:39;12.85;;;8.30;;
42590;SDS011;28218;53.342;-6.216;2023-03-05T08:07:08;14.75;;;8.07;;
42590;SDS011;28218;53.342;-6.216;2023-03-05T08:09:36;11.45;;;8.73;;
42590;SDS011;28218;53.342;-6.216;2023-03-05T08:12:05;13.30;;;8.90;;
42590;SDS011;28218;53.342;-6.216;2023-03-05T08:14:35;13.35;;;8.73;;
42590;SDS011;28218;53.342;-6.216;2023-03-05T08:17:03;16.95;;;9.50;;
42590;SDS011;28218;53.342;-6.216;2023-03-05T08:19:32;18.48;;;9.00;;
42590;SDS011;28218;53.342;-6.216;2023-03-05T08:22:02;15.25;;;8.43;;
42590;SDS011;28218;53.342;-6.216;2023-03-05T08:24:30;17.55;;;9.70;;
42590;SDS011;28218;53.342;-6.216;2023-03-05T08:26:58;12.93;;;8.93;;
42590;SDS011;28218;53.342;-6.216;2023-03-05T08:29:27;13.50;;;8.63;;
42590;SDS011;28218;53.342;-6.216;2023-03-05T08:31:56;13.50;;;9.18;;
42590;SDS011;28218;53.342;-6.216;2023-03-05T08:34:24;19.13;;;9.48;;
42590;SDS011;28218;53.342;-6.216;2023-03-05T08:36:52;13.35;;;8.38;;
42590;SDS011;28218;53.342;-6.216;2023-03-05T08:39:22;17.08;;;8.48;;
42590;SDS011;28218;53.342;-6.216;2023-03-05T08:41:50;18.42;;;9.18;;
42590;SDS011;28218;53.342;-6.216;2023-03-05T08:44:18;17.52;;;9.50;;
42590;SDS011;28218;53.342;-6.216;2023-03-05T08:46:47;13.63;;;8.48;;
42590;SDS011;28218;53.342;-6.216;2023-03-05T08:49:15;12.05;;;8.50;;
42590;SDS011;28218;53.342;-6.216;2023-03-05T08:51:43;12.75;;;7.65;;
42590;SDS011;28218;53.342;-6.216;2023-03-05T08:54:11;12.32;;;8.10;;
42590;SDS011;28218;53.342;-6.216;2023-03-05T08:56:41;17.75;;;9.13;;
42590;SDS011;28218;53.342;-6.216;2023-03-05T08:59:09;18.70;;;9.15;;
42590;SDS011;28218;53.342;-6.216;2023-03-05T09:01:39;12.23;;;7.85;;
42590;SDS011;28218;53.342;-6.216;2023-03-05T09:04:07;13.48;;;8.52;;
42590;SDS011;28218;53.342;-6.216;2023-03-05T09:06:36;15.02;;;8.30;;
42590;SDS011;28218;53.342;-6.216;2023-03-05T09:09:06;14.15;;;8.13;;
42590;SDS011;28218;53.342;-6.216;2023-03-05T09:11:35;15.32;;;8.27;;
42590;SDS011;28218;53.342;-6.216;2023-03-05T09:14:05;12.20;;;7.80;;
42590;SDS011;28218;53.342;-6.216;2023-03-05T09:16:34;13.85;;;8.93;;
42590;SDS011;28218;53.342;-6.216;2023-03-05T09:19:03;10.52;;;7.45;;
42590;SDS011;28218;53.342;-6.216;2023-03-05T09:21:33;14.30;;;8.27;;
42590;SDS011;28218;53.342;-6.216;2023-03-05T09:24:01;12.70;;;8.93;;
42590;SDS011;28218;53.342;-6.216;2023-03-05T09:26:30;12.52;;;7.85;;
42590;SDS011;28218;53.342;-6.216;2023-03-05T09:28:58;12.52;;;8.20;;
42590;SDS011;28218;53.342;-6.216;2023-03-05T09:31:27;14.52;;;8.35;;
42590;SDS011;28218;53.342;-6.216;2023-03-05T09:33:55;15.93;;;8.18;;
42590;SDS011;28218;53.342;-6.216;2023-03-05T09:36:24;13.63;;;8.13;;
42590;SDS011;28218;53.342;-6.216;2023-03-05T09:38:54;14.10;;;7.88;;
42590;SDS011;28218;53.342;-6.216;2023-03-05T09:41:27;11.57;;;7.85;;
42590;SDS011;28218;53.342;-6.216;2023-03-05T09:44:09;14.60;;;8.73;;
42590;SDS011;28218;53.342;-6.216;2023-03-05T09:46:51;14.13;;;7.63;;
42590;SDS011;28218;53.342;-6.216;2023-03-05T09:49:27;12.70;;;7.90;;
42590;SDS011;28218;53.342;-6.216;2023-03-05T09:52:01;11.55;;;7.40;;
42590;SDS011;28218;53.342;-6.216;2023-03-05T09:54:36;14.40;;;8.05;;
42590;SDS011;28218;53.342;-6.216;2023-03-05T09:57:09;15.18;;;8.98;;
42590;SDS011;28218;53.342;-6.216;2023-03-05T09:59:45;9.38;;;7.50;;
42590;SDS011;28218;53.342;-6.216;2023-03-05T10:02:19;13.82;;;8.07;;
42590;SDS011;28218;53.342;-6.216;2023-03-05T10:04:51;13.55;;;7.00;;
42590;SDS011;28218;53.342;-6.216;2023-03-05T10:07:23;12.05;;;8.25;;
42590;SDS011;28218;53.342;-6.216;2023-03-05T10:09:56;16.15;;;7.88;;
42590;SDS011;28218;53.342;-6.216;2023-03-05T10:12:31;11.45;;;7.20;;
42590;SDS011;28218;53.342;-6.216;2023-03-05T10:15:10;13.13;;;8.07;;
42590;SDS011;28218;53.342;-6.216;2023-03-05T10:20:50;10.10;;;7.82;;
42590;SDS011;28218;53.342;-6.216;2023-03-05T10:23:24;12.88;;;7.85;;
42590;SDS011;28218;53.342;-6.216;2023-03-05T10:26:01;10.07;;;7.72;;
42590;SDS011;28218;53.342;-6.216;2023-03-05T10:28:38;11.63;;;7.82;;
42590;SDS011;28218;53.342;-6.216;2023-03-05T10:31:19;8.75;;;6.45;;
42590;SDS011;28218;53.342;-6.216;2023-03-05T10:34:05;10.55;;;7.53;;
42590;SDS011;28218;53.342;-6.216;2023-03-05T10:36:57;17.02;;;8.88;;
42590;SDS011;28218;53.342;-6.216;2023-03-05T10:39:42;10.50;;;6.72;;
42590;SDS011;28218;53.342;-6.216;2023-03-05T10:42:21;12.07;;;7.93;;
42590;SDS011;28218;53.342;-6.216;2023-03-05T10:44:57;12.00;;;7.70;;
42590;SDS011;28218;53.342;-6.216;2023-03-05T10:47:27;11.50;;;7.60;;
42590;SDS011;28218;53.342;-6.216;2023-03-05T10:50:00;13.85;;;7.47;;
42590;SDS011;28218;53.342;-6.216;2023-03-05T10:52:30;10.63;;;7.07;;
42590;SDS011;28218;53.342;-6.216;2023-03-05T10:55:04;11.98;;;7.53;;
42590;SDS011;28218;53.342;-6.216;2023-03-05T10:57:41;9.95;;;7.25;;
42590;SDS011;28218;53.342;-6.216;2023-03-05T11:00:15;10.77;;;8.02;;
42590;SDS011;28218;53.342;-6.216;2023-03-05T11:02:53;11.38;;;7.13;;
42590;SDS011;28218;53.342;-6.216;2023-03-05T11:05:50;11.13;;;7.10;;
42590;SDS011;28218;53.342;-6.216;2023-03-05T11:08:26;15.88;;;7.82;;
42590;SDS011;28218;53.342;-6.216;2023-03-05T11:11:05;9.43;;;7.20;;
42590;SDS011;28218;53.342;-6.216;2023-03-05T11:13:40;10.20;;;7.22;;
42590;SDS011;28218;53.342;-6.216;2023-03-05T11:16:18;17.48;;;7.82;;
42590;SDS011;28218;53.342;-6.216;2023-03-05T11:18:49;9.95;;;7.18;;
42590;SDS011;28218;53.342;-6.216;2023-03-05T11:21:38;9.93;;;6.80;;
42590;SDS011;28218;53.342;-6.216;2023-03-05T11:24:09;11.25;;;7.13;;
42590;SDS011;28218;53.342;-6.216;2023-03-05T11:26:47;10.07;;;7.15;;
42590;SDS011;28218;53.342;-6.216;2023-03-05T11:29:18;9.82;;;7.32;;
42590;SDS011;28218;53.342;-6.216;2023-03-05T11:31:48;9.43;;;6.35;;
42590;SDS011;28218;53.342;-6.216;2023-03-05T11:34:21;12.68;;;7.97;;
42590;SDS011;28218;53.342;-6.216;2023-03-05T11:37:04;12.38;;;8.05;;
42590;SDS011;28218;53.342;-6.216;2023-03-05T11:39:33;14.05;;;7.18;;
42590;SDS011;28218;53.342;-6.216;2023-03-05T11:42:09;14.02;;;6.95;;
42590;SDS011;28218;53.342;-6.216;2023-03-05T11:44:43;12.13;;;7.88;;
42590;SDS011;28218;53.342;-6.216;2023-03-05T11:47:19;12.68;;;7.93;;
42590;SDS011;28218;53.342;-6.216;2023-03-05T11:49:54;13.90;;;8.07;;
42590;SDS011;28218;53.342;-6.216;2023-03-05T11:52:33;10.95;;;7.28;;
42590;SDS011;28218;53.342;-6.216;2023-03-05T11:55:11;11.82;;;8.30;;
42590;SDS011;28218;53.342;-6.216;2023-03-05T11:57:43;10.70;;;7.90;;
42590;SDS011;28218;53.342;-6.216;2023-03-05T12:00:18;14.40;;;8.52;;
42590;SDS011;28218;53.342;-6.216;2023-03-05T12:02:51;11.15;;;7.90;;
42590;SDS011;28218;53.342;-6.216;2023-03-05T12:05:23;10.75;;;7.70;;
42590;SDS011;28218;53.342;-6.216;2023-03-05T12:07:56;12.65;;;8.13;;
42590;SDS011;28218;53.342;-6.216;2023-03-05T12:10:27;25.15;;;7.47;;
42590;SDS011;28218;53.342;-6.216;2023-03-05T12:12:56;10.60;;;7.20;;
42590;SDS011;28218;53.342;-6.216;2023-03-05T12:15:41;10.63;;;7.85;;
42590;SDS011;28218;53.342;-6.216;2023-03-05T12:18:27;10.18;;;7.63;;
42590;SDS011;28218;53.342;-6.216;2023-03-05T12:21:06;13.25;;;8.15;;
42590;SDS011;28218;53.342;-6.216;2023-03-05T12:23:55;12.40;;;7.97;;
42590;SDS011;28218;53.342;-6.216;2023-03-05T12:29:28;11.32;;;8.07;;
42590;SDS011;28218;53.342;-6.216;2023-03-05T12:32:04;11.55;;;7.00;;
42590;SDS011;28218;53.342;-6.216;2023-03-05T12:34:57;10.77;;;7.93;;
42590;SDS011;28218;53.342;-6.216;2023-03-05T12:40:29;10.07;;;6.75;;
42590;SDS011;28218;53.342;-6.216;2023-03-05T12:45:30;10.23;;;7.20;;
42590;SDS011;28218;53.342;-6.216;2023-03-05T12:51:26;9.23;;;6.80;;
42590;SDS011;28218;53.342;-6.216;2023-03-05T12:54:18;11.00;;;7.10;;
42590;SDS011;28218;53.342;-6.216;2023-03-05T12:56:56;9.73;;;7.07;;
42590;SDS011;28218;53.342;-6.216;2023-03-05T12:59:33;12.35;;;7.05;;
42590;SDS011;28218;53.342;-6.216;2023-03-05T13:04:55;10.50;;;6.75;;
42590;SDS011;28218;53.342;-6.216;2023-03-05T13:07:25;10.60;;;6.10;;
42590;SDS011;28218;53.342;-6.216;2023-03-05T13:09:53;8.90;;;6.90;;
42590;SDS011;28218;53.342;-6.216;2023-03-05T13:12:25;11.68;;;7.05;;
42590;SDS011;28218;53.342;-6.216;2023-03-05T13:14:59;9.70;;;5.65;;
42590;SDS011;28218;53.342;-6.216;2023-03-05T13:17:33;10.68;;;6.47;;
42590;SDS011;28218;53.342;-6.216;2023-03-05T13:23:02;8.38;;;5.45;;
42590;SDS011;28218;53.342;-6.216;2023-03-05T13:25:31;10.07;;;5.68;;
42590;SDS011;28218;53.342;-6.216;2023-03-05T13:28:04;7.25;;;5.22;;
42590;SDS011;28218;53.342;-6.216;2023-03-05T13:30:37;12.75;;;6.20;;
42590;SDS011;28218;53.342;-6.216;2023-03-05T13:33:12;15.18;;;9.93;;
42590;SDS011;28218;53.342;-6.216;2023-03-05T13:35:44;8.73;;;5.47;;
42590;SDS011;28218;53.342;-6.216;2023-03-05T13:38:18;8.90;;;5.10;;
42590;SDS011;28218;53.342;-6.216;2023-03-05T13:41:01;10.77;;;7.45;;
42590;SDS011;28218;53.342;-6.216;2023-03-05T13:43:52;9.95;;;6.10;;
42590;SDS011;28218;53.342;-6.216;2023-03-05T13:46:26;7.57;;;4.72;;
42590;SDS011;28218;53.342;-6.216;2023-03-05T13:48:56;9.82;;;5.78;;
42590;SDS011;28218;53.342;-6.216;2023-03-05T13:51:39;11.38;;;8.40;;
42590;SDS011;28218;53.342;-6.216;2023-03-05T13:54:07;4.53;;;3.25;;
42590;SDS011;28218;53.342;-6.216;2023-03-05T13:56:47;4.47;;;2.90;;
42590;SDS011;28218;53.342;-6.216;2023-03-05T13:59:18;3.83;;;2.10;;
42590;SDS011;28218;53.342;-6.216;2023-03-05T14:01:48;8.10;;;5.18;;
42590;SDS011;28218;53.342;-6.216;2023-03-05T14:04:18;7.10;;;4.15;;
42590;SDS011;28218;53.342;-6.216;2023-03-05T14:06:51;5.70;;;2.25;;
42590;SDS011;28218;53.342;-6.216;2023-03-05T14:09:23;5.47;;;2.28;;
42590;SDS011;28218;53.342;-6.216;2023-03-05T14:11:59;5.55;;;1.90;;
42590;SDS011;28218;53.342;-6.216;2023-03-05T14:14:32;3.83;;;2.80;;
42590;SDS011;28218;53.342;-6.216;2023-03-05T14:20:13;2.72;;;2.38;;
42590;SDS011;28218;53.342;-6.216;2023-03-05T14:25:26;3.67;;;1.60;;
42590;SDS011;28218;53.342;-6.216;2023-03-05T14:27:59;6.85;;;2.30;;
42590;SDS011;28218;53.342;-6.216;2023-03-05T14:30:30;4.60;;;1.80;;
42590;SDS011;28218;53.342;-6.216;2023-03-05T14:33:01;3.47;;;1.60;;
42590;SDS011;28218;53.342;-6.216;2023-03-05T14:35:30;2.17;;;1.98;;
42590;SDS011;28218;53.342;-6.216;2023-03-05T14:37:59;2.63;;;1.27;;
42590;SDS011;28218;53.342;-6.216;2023-03-05T14:40:29;2.58;;;1.40;;
42590;SDS011;28218;53.342;-6.216;2023-03-05T14:42:58;1.65;;;1.00;;
42590;SDS011;28218;53.342;-6.216;2023-03-05T14:45:28;1.85;;;1.30;;
42590;SDS011;28218;53.342;-6.216;2023-03-05T14:48:00;2.70;;;1.63;;
42590;SDS011;28218;53.342;-6.216;2023-03-05T14:50:31;2.88;;;1.65;;
42590;SDS011;28218;53.342;-6.216;2023-03-05T14:53:01;3.28;;;1.30;;
42590;SDS011;28218;53.342;-6.216;2023-03-05T14:55:33;1.52;;;1.13;;
42590;SDS011;28218;53.342;-6.216;2023-03-05T14:58:06;4.40;;;1.60;;
42590;SDS011;28218;53.342;-6.216;2023-03-05T15:00:40;3.20;;;1.40;;
42590;SDS011;28218;53.342;-6.216;2023-03-05T15:03:09;1.00;;;1.00;;
42590;SDS011;28218;53.342;-6.216;2023-03-05T15:05:38;1.80;;;1.17;;
42590;SDS011;28218;53.342;-6.216;2023-03-05T15:08:09;2.88;;;1.10;;
42590;SDS011;28218;53.342;-6.216;2023-03-05T15:10:41;1.05;;;0.95;;
42590;SDS011;28218;53.342;-6.216;2023-03-05T15:13:09;1.30;;;1.00;;
42590;SDS011;28218;53.342;-6.216;2023-03-05T15:15:41;2.83;;;1.37;;
42590;SDS011;28218;53.342;-6.216;2023-03-05T15:18:11;1.42;;;0.93;;